Florence Regional Airport
KFLO : now visible

Airfield :











YOU CAN JOIN US ON...

 
LOGIN :

Register | Disclaimer

   EN    FR    IT 

 









Legend :    VFR   Marginal VFR   IFR   Intensive IFR   Very Intensive IFR
Visi :
Ceiling :
>= 8 km
>= 3000ft
5 to 8 km
1000 to 3000 ft
1500m to 5 km
500 to 1000 ft
800 to 1500m
200 to 500 ft
< 800m
< 200 ft
Symbols :   Thunderstorms  Fog  Heavy snow  Heavy precipitations  Wind > 20 kt






- Airport Elevation : 146 ft
- IATA code : FLO


KFLO - Florence Regional

CURRENT METAR :
  • 250805Z AUTO 11005KT 3SM BR OVC002 22/21 A3007 RMK AO2 T02220211

EXPIRED METARs :
  • 250753Z AUTO 11005KT 2 1/2SM BR OVC002 22/21 A3006 RMK AO2 SLP178 T02220211
  • 250736Z AUTO 11007KT 2SM BR OVC002 22/21 A3006 RMK AO2 T02220206
  • 250706Z AUTO 09006KT 7SM OVC004 22/21 A3007 RMK AO2 T02220206
  • 250640Z AUTO 10005KT 10SM SCT006 OVC011 22/20 A3008 RMK AO2 T02220200
  • 250553Z AUTO 10004KT 10SM OVC010 22/20 A3009 RMK AO2 CIG 009V014 SLP184 60005 T02220200 10222 20217 56009

TAF KFLO
Valid from the 25 at 08:00 until the 26 at 06:00 UTC


250814Z 2508/2606 09005KT 4SM BR OVC002
FM251300 09006KT P6SM BKN010
FM251700 08006KT P6SM VCSH BKN030
KZJX FIR / North America



MET'MAP, your aeronautical weather chart ! - Copyright ORBIFLY December 2007 - Disclaimer

ORBIFLY MET'MAP TEAM :

Programming & Development : Alexandra Zaïnal
Concept & original design : Baudouin d'Aumeries
Assistance for programming : Marc-Olivier Méhu
Technical & hardware support : Manuel Goepfert

Contact : metmap@orbifly.com




SOURCES & CREDITS :

   NOAA       Earth
Advisory